sensor_id;sensor_type;location;lat;lon;timestamp;pressure;altitude;pressure_sealevel;temperature;humidity
27712;BME280;2377;51.734;8.950;2023-06-24T00:00:03;98741.78;;;16.10;77.77
27712;BME280;2377;51.734;8.950;2023-06-24T00:02:33;98743.78;;;16.08;77.91
27712;BME280;2377;51.734;8.950;2023-06-24T00:05:02;98746.81;;;16.04;78.21
27712;BME280;2377;51.734;8.950;2023-06-24T00:07:30;98749.84;;;16.01;78.35
27712;BME280;2377;51.734;8.950;2023-06-24T00:09:58;98749.28;;;15.99;78.31
27712;BME280;2377;51.734;8.950;2023-06-24T00:12:25;98753.09;;;15.97;78.73
27712;BME280;2377;51.734;8.950;2023-06-24T00:14:52;98756.34;;;15.92;79.19
27712;BME280;2377;51.734;8.950;2023-06-24T00:17:19;98757.03;;;15.88;79.67
27712;BME280;2377;51.734;8.950;2023-06-24T00:19:46;98756.47;;;15.85;80.21
27712;BME280;2377;51.734;8.950;2023-06-24T00:22:13;98754.09;;;15.84;80.07
27712;BME280;2377;51.734;8.950;2023-06-24T00:24:40;98758.47;;;15.83;80.02
27712;BME280;2377;51.734;8.950;2023-06-24T00:27:09;98750.94;;;15.82;79.94
27712;BME280;2377;51.734;8.950;2023-06-24T00:29:37;98752.19;;;15.79;79.74
27712;BME280;2377;51.734;8.950;2023-06-24T00:32:05;98759.13;;;15.79;80.02
27712;BME280;2377;51.734;8.950;2023-06-24T00:34:32;98751.84;;;15.76;80.38
27712;BME280;2377;51.734;8.950;2023-06-24T00:36:59;98754.66;;;15.74;80.45
27712;BME280;2377;51.734;8.950;2023-06-24T00:39:28;98749.94;;;15.71;80.51
27712;BME280;2377;51.734;8.950;2023-06-24T00:41:55;98750.34;;;15.68;81.12
27712;BME280;2377;51.734;8.950;2023-06-24T00:44:24;98748.41;;;15.63;81.36
27712;BME280;2377;51.734;8.950;2023-06-24T00:46:51;98753.25;;;15.60;81.49
27712;BME280;2377;51.734;8.950;2023-06-24T00:49:18;98757.25;;;15.56;81.17
27712;BME280;2377;51.734;8.950;2023-06-24T00:51:45;98750.19;;;15.51;80.83
27712;BME280;2377;51.734;8.950;2023-06-24T00:54:16;98756.56;;;15.49;80.70
27712;BME280;2377;51.734;8.950;2023-06-24T00:56:45;98756.00;;;15.47;80.83
27712;BME280;2377;51.734;8.950;2023-06-24T00:59:15;98758.81;;;15.45;80.96
27712;BME280;2377;51.734;8.950;2023-06-24T01:01:46;98748.16;;;15.41;81.84
27712;BME280;2377;51.734;8.950;2023-06-24T01:04:13;98756.91;;;15.40;81.70
27712;BME280;2377;51.734;8.950;2023-06-24T01:06:42;98755.31;;;15.39;81.68
27712;BME280;2377;51.734;8.950;2023-06-24T01:09:10;98753.97;;;15.37;81.25
27712;BME280;2377;51.734;8.950;2023-06-24T01:11:37;98760.34;;;15.34;80.82
27712;BME280;2377;51.734;8.950;2023-06-24T01:14:04;98754.06;;;15.30;80.62
27712;BME280;2377;51.734;8.950;2023-06-24T01:16:38;98756.50;;;15.25;80.64
27712;BME280;2377;51.734;8.950;2023-06-24T01:19:51;98757.38;;;15.19;80.84
27712;BME280;2377;51.734;8.950;2023-06-24T01:22:44;98753.88;;;15.13;80.77
27712;BME280;2377;51.734;8.950;2023-06-24T01:25:35;98751.19;;;15.08;80.81
27712;BME280;2377;51.734;8.950;2023-06-24T01:28:26;98757.75;;;15.04;81.03
27712;BME280;2377;51.734;8.950;2023-06-24T01:34:27;98759.63;;;14.97;81.34
27712;BME280;2377;51.734;8.950;2023-06-24T01:37:07;98756.47;;;14.95;81.40
27712;BME280;2377;51.734;8.950;2023-06-24T01:39:42;98752.56;;;14.92;81.79
27712;BME280;2377;51.734;8.950;2023-06-24T01:42:16;98752.22;;;14.89;82.25
27712;BME280;2377;51.734;8.950;2023-06-24T01:44:47;98749.06;;;14.87;82.33
27712;BME280;2377;51.734;8.950;2023-06-24T01:47:18;98752.44;;;14.87;82.12
27712;BME280;2377;51.734;8.950;2023-06-24T01:49:49;98751.84;;;14.85;81.60
27712;BME280;2377;51.734;8.950;2023-06-24T01:52:22;98748.69;;;14.83;81.57
27712;BME280;2377;51.734;8.950;2023-06-24T01:54:52;98747.34;;;14.80;82.25
27712;BME280;2377;51.734;8.950;2023-06-24T01:57:23;98746.78;;;14.78;82.21
27712;BME280;2377;51.734;8.950;2023-06-24T01:59:54;98745.41;;;14.76;82.66
27712;BME280;2377;51.734;8.950;2023-06-24T02:02:26;98746.44;;;14.75;82.58
27712;BME280;2377;51.734;8.950;2023-06-24T02:04:57;98749.22;;;14.73;82.44
27712;BME280;2377;51.734;8.950;2023-06-24T02:07:28;98743.50;;;14.71;82.09
27712;BME280;2377;51.734;8.950;2023-06-24T02:09:58;98747.88;;;14.71;82.25
27712;BME280;2377;51.734;8.950;2023-06-24T02:12:28;98751.28;;;14.65;83.52
27712;BME280;2377;51.734;8.950;2023-06-24T02:14:57;98749.72;;;14.64;83.02
27712;BME280;2377;51.734;8.950;2023-06-24T02:17:25;98748.13;;;14.63;83.02
27712;BME280;2377;51.734;8.950;2023-06-24T02:19:57;98745.56;;;14.63;82.93
27712;BME280;2377;51.734;8.950;2023-06-24T02:22:24;98751.72;;;14.62;82.91
27712;BME280;2377;51.734;8.950;2023-06-24T02:24:53;98742.44;;;14.61;83.34
27712;BME280;2377;51.734;8.950;2023-06-24T02:27:21;98731.56;;;14.58;83.47
27712;BME280;2377;51.734;8.950;2023-06-24T02:29:49;98734.56;;;14.55;83.47
27712;BME280;2377;51.734;8.950;2023-06-24T02:32:16;98735.56;;;14.54;83.43
27712;BME280;2377;51.734;8.950;2023-06-24T02:34:43;98729.03;;;14.52;83.27
27712;BME280;2377;51.734;8.950;2023-06-24T02:37:16;98732.38;;;14.52;83.08
27712;BME280;2377;51.734;8.950;2023-06-24T02:39:47;98739.53;;;14.50;83.34
27712;BME280;2377;51.734;8.950;2023-06-24T02:42:15;98742.34;;;14.49;83.44
27712;BME280;2377;51.734;8.950;2023-06-24T02:44:43;98742.34;;;14.49;84.18
27712;BME280;2377;51.734;8.950;2023-06-24T02:47:14;98750.06;;;14.49;84.25
27712;BME280;2377;51.734;8.950;2023-06-24T02:49:44;98744.34;;;14.47;84.40
27712;BME280;2377;51.734;8.950;2023-06-24T02:52:16;98745.56;;;14.44;84.10
27712;BME280;2377;51.734;8.950;2023-06-24T02:54:47;98754.25;;;14.43;84.18
27712;BME280;2377;51.734;8.950;2023-06-24T02:57:18;98753.69;;;14.41;83.92
27712;BME280;2377;51.734;8.950;2023-06-24T02:59:46;98754.69;;;14.40;83.73
27712;BME280;2377;51.734;8.950;2023-06-24T03:02:16;98753.09;;;14.39;83.84
27712;BME280;2377;51.734;8.950;2023-06-24T03:04:44;98756.09;;;14.36;83.89
27712;BME280;2377;51.734;8.950;2023-06-24T03:07:11;98761.44;;;14.34;83.70
27712;BME280;2377;51.734;8.950;2023-06-24T03:09:40;98753.97;;;14.33;83.50
27712;BME280;2377;51.734;8.950;2023-06-24T03:12:08;98749.25;;;14.30;83.19
27712;BME280;2377;51.734;8.950;2023-06-24T03:14:35;98748.88;;;14.26;83.08
27712;BME280;2377;51.734;8.950;2023-06-24T03:17:03;98757.22;;;14.22;83.03
27712;BME280;2377;51.734;8.950;2023-06-24T03:19:30;98771.09;;;14.21;83.23
27712;BME280;2377;51.734;8.950;2023-06-24T03:21:57;98763.78;;;14.17;83.43
27712;BME280;2377;51.734;8.950;2023-06-24T03:24:24;98767.94;;;14.19;83.53
27712;BME280;2377;51.734;8.950;2023-06-24T03:26:52;98765.16;;;14.20;83.74
27712;BME280;2377;51.734;8.950;2023-06-24T03:29:22;98768.72;;;14.19;84.26
27712;BME280;2377;51.734;8.950;2023-06-24T03:31:49;98770.28;;;14.20;84.92
27712;BME280;2377;51.734;8.950;2023-06-24T03:34:16;98775.44;;;14.20;85.19
27712;BME280;2377;51.734;8.950;2023-06-24T03:36:43;98771.50;;;14.17;85.05
27712;BME280;2377;51.734;8.950;2023-06-24T03:39:10;98774.31;;;14.16;84.84
27712;BME280;2377;51.734;8.950;2023-06-24T03:41:37;98769.75;;;14.18;84.78
27712;BME280;2377;51.734;8.950;2023-06-24T03:44:06;98770.53;;;14.19;84.33
27712;BME280;2377;51.734;8.950;2023-06-24T03:46:33;98772.31;;;14.18;84.27
27712;BME280;2377;51.734;8.950;2023-06-24T03:49:00;98778.22;;;14.19;84.45
27712;BME280;2377;51.734;8.950;2023-06-24T03:51:26;98771.50;;;14.17;85.30
27712;BME280;2377;51.734;8.950;2023-06-24T03:53:55;98773.88;;;14.19;85.58
27712;BME280;2377;51.734;8.950;2023-06-24T03:56:22;98772.66;;;14.22;85.99
27712;BME280;2377;51.734;8.950;2023-06-24T03:58:49;98770.88;;;14.22;86.62
27712;BME280;2377;51.734;8.950;2023-06-24T04:01:17;98780.19;;;14.23;86.82
27712;BME280;2377;51.734;8.950;2023-06-24T04:03:44;98773.81;;;14.26;86.78
27712;BME280;2377;51.734;8.950;2023-06-24T04:06:11;98767.66;;;14.27;86.61
27712;BME280;2377;51.734;8.950;2023-06-24T04:08:38;98765.66;;;14.29;86.86
27712;BME280;2377;51.734;8.950;2023-06-24T04:11:06;98772.41;;;14.30;86.85
27712;BME280;2377;51.734;8.950;2023-06-24T04:13:33;98770.19;;;14.33;87.38
27712;BME280;2377;51.734;8.950;2023-06-24T04:16:01;98776.09;;;14.34;87.47
27712;BME280;2377;51.734;8.950;2023-06-24T04:18:29;98776.47;;;14.37;87.86
27712;BME280;2377;51.734;8.950;2023-06-24T04:20:56;98769.09;;;14.41;88.23
27712;BME280;2377;51.734;8.950;2023-06-24T04:23:23;98770.13;;;14.40;88.25
27712;BME280;2377;51.734;8.950;2023-06-24T04:25:50;98773.84;;;14.44;88.38
27712;BME280;2377;51.734;8.950;2023-06-24T04:28:17;98774.19;;;14.48;88.38
27712;BME280;2377;51.734;8.950;2023-06-24T04:30:44;98772.78;;;14.52;88.62
27712;BME280;2377;51.734;8.950;2023-06-24T04:33:11;98774.75;;;14.56;88.40
27712;BME280;2377;51.734;8.950;2023-06-24T04:35:39;98775.09;;;14.60;88.48
27712;BME280;2377;51.734;8.950;2023-06-24T04:38:06;98774.44;;;14.65;88.29
27712;BME280;2377;51.734;8.950;2023-06-24T04:40:33;98776.59;;;14.68;88.62
27712;BME280;2377;51.734;8.950;2023-06-24T04:43:00;98785.44;;;14.72;88.47
27712;BME280;2377;51.734;8.950;2023-06-24T04:45:26;98776.88;;;14.78;88.62
27712;BME280;2377;51.734;8.950;2023-06-24T04:47:53;98778.03;;;14.82;88.87
27712;BME280;2377;51.734;8.950;2023-06-24T04:50:20;98776.38;;;14.88;89.08
27712;BME280;2377;51.734;8.950;2023-06-24T04:52:54;98778.31;;;14.92;88.91
27712;BME280;2377;51.734;8.950;2023-06-24T04:55:22;98771.50;;;14.98;89.13
27712;BME280;2377;51.734;8.950;2023-06-24T04:57:49;98777.00;;;15.01;89.61
27712;BME280;2377;51.734;8.950;2023-06-24T05:00:17;98781.31;;;15.08;88.93
27712;BME280;2377;51.734;8.950;2023-06-24T05:02:44;98784.78;;;15.13;89.40
27712;BME280;2377;51.734;8.950;2023-06-24T05:05:11;98784.72;;;15.20;89.05
27712;BME280;2377;51.734;8.950;2023-06-24T05:07:38;98782.25;;;15.25;88.91
27712;BME280;2377;51.734;8.950;2023-06-24T05:10:07;98787.34;;;15.32;88.89
27712;BME280;2377;51.734;8.950;2023-06-24T05:12:34;98790.81;;;15.37;88.93
27712;BME280;2377;51.734;8.950;2023-06-24T05:15:01;98796.44;;;15.46;88.74
27712;BME280;2377;51.734;8.950;2023-06-24T05:17:28;98790.97;;;15.54;88.61
27712;BME280;2377;51.734;8.950;2023-06-24T05:19:55;98801.97;;;15.61;88.45
27712;BME280;2377;51.734;8.950;2023-06-24T05:22:22;98799.31;;;15.68;88.27
27712;BME280;2377;51.734;8.950;2023-06-24T05:24:49;98799.03;;;15.76;88.26
27712;BME280;2377;51.734;8.950;2023-06-24T05:27:18;98801.53;;;15.83;88.17
27712;BME280;2377;51.734;8.950;2023-06-24T05:29:45;98808.16;;;15.91;88.44
27712;BME280;2377;51.734;8.950;2023-06-24T05:32:12;98809.28;;;15.95;88.59
27712;BME280;2377;51.734;8.950;2023-06-24T05:34:39;98812.53;;;16.02;88.42
27712;BME280;2377;51.734;8.950;2023-06-24T05:37:06;98812.19;;;16.10;88.40
27712;BME280;2377;51.734;8.950;2023-06-24T05:39:33;98806.72;;;16.18;88.32
27712;BME280;2377;51.734;8.950;2023-06-24T05:42:00;98802.81;;;16.27;89.28
27712;BME280;2377;51.734;8.950;2023-06-24T05:44:28;98809.19;;;16.37;89.09
27712;BME280;2377;51.734;8.950;2023-06-24T05:46:55;98803.13;;;16.43;89.18
27712;BME280;2377;51.734;8.950;2023-06-24T05:49:22;98808.19;;;16.49;89.23
27712;BME280;2377;51.734;8.950;2023-06-24T05:51:49;98810.06;;;16.54;89.64
27712;BME280;2377;51.734;8.950;2023-06-24T05:54:16;98798.88;;;16.60;90.02
27712;BME280;2377;51.734;8.950;2023-06-24T05:56:43;98802.63;;;16.69;90.40
27712;BME280;2377;51.734;8.950;2023-06-24T05:59:10;98803.53;;;16.75;90.45
27712;BME280;2377;51.734;8.950;2023-06-24T06:01:39;98809.41;;;16.82;90.67
27712;BME280;2377;51.734;8.950;2023-06-24T06:04:06;98805.66;;;16.90;91.06
27712;BME280;2377;51.734;8.950;2023-06-24T06:06:33;98809.69;;;16.98;90.95
27712;BME280;2377;51.734;8.950;2023-06-24T06:09:00;98809.56;;;17.04;91.17
27712;BME280;2377;51.734;8.950;2023-06-24T06:11:28;98805.03;;;17.11;91.22
27712;BME280;2377;51.734;8.950;2023-06-24T06:13:56;98820.41;;;17.18;90.85
27712;BME280;2377;51.734;8.950;2023-06-24T06:16:23;98819.50;;;17.24;90.94
27712;BME280;2377;51.734;8.950;2023-06-24T06:18:52;98822.50;;;17.33;90.60
27712;BME280;2377;51.734;8.950;2023-06-24T06:21:19;98821.59;;;17.39;90.14
27712;BME280;2377;51.734;8.950;2023-06-24T06:23:46;98818.63;;;17.47;89.31
27712;BME280;2377;51.734;8.950;2023-06-24T06:26:14;98811.06;;;17.58;88.84
27712;BME280;2377;51.734;8.950;2023-06-24T06:28:41;98812.78;;;17.69;88.42
27712;BME280;2377;51.734;8.950;2023-06-24T06:31:08;98810.38;;;17.79;86.61
27712;BME280;2377;51.734;8.950;2023-06-24T06:33:35;98817.53;;;17.89;86.66
27712;BME280;2377;51.734;8.950;2023-06-24T06:36:04;98820.31;;;17.99;86.63
27712;BME280;2377;51.734;8.950;2023-06-24T06:38:33;98827.97;;;18.11;86.56
27712;BME280;2377;51.734;8.950;2023-06-24T06:41:00;98825.59;;;18.26;86.60
27712;BME280;2377;51.734;8.950;2023-06-24T06:43:30;98833.13;;;18.45;85.99
27712;BME280;2377;51.734;8.950;2023-06-24T06:45:57;98824.75;;;18.59;85.87
27712;BME280;2377;51.734;8.950;2023-06-24T06:48:24;98825.56;;;18.77;85.62
27712;BME280;2377;51.734;8.950;2023-06-24T06:50:51;98825.50;;;18.94;83.65
27712;BME280;2377;51.734;8.950;2023-06-24T06:53:21;98838.69;;;19.14;83.28
27712;BME280;2377;51.734;8.950;2023-06-24T06:55:48;98837.56;;;19.32;82.74
27712;BME280;2377;51.734;8.950;2023-06-24T06:58:15;98825.81;;;19.52;82.34
27712;BME280;2377;51.734;8.950;2023-06-24T07:00:42;98831.47;;;19.71;81.00
27712;BME280;2377;51.734;8.950;2023-06-24T07:03:10;98824.59;;;19.87;80.04
27712;BME280;2377;51.734;8.950;2023-06-24T07:05:37;98828.91;;;20.08;80.20
27712;BME280;2377;51.734;8.950;2023-06-24T07:08:06;98836.63;;;20.30;79.78
27712;BME280;2377;51.734;8.950;2023-06-24T07:10:34;98827.63;;;20.48;77.99
27712;BME280;2377;51.734;8.950;2023-06-24T07:13:01;98827.97;;;20.62;77.11
27712;BME280;2377;51.734;8.950;2023-06-24T07:15:28;98831.97;;;20.80;75.38
27712;BME280;2377;51.734;8.950;2023-06-24T07:17:55;98830.19;;;20.90;76.41
27712;BME280;2377;51.734;8.950;2023-06-24T07:20:24;98836.22;;;21.11;75.17
27712;BME280;2377;51.734;8.950;2023-06-24T07:22:51;98837.06;;;21.27;74.30
27712;BME280;2377;51.734;8.950;2023-06-24T07:25:18;98839.69;;;21.38;72.77
27712;BME280;2377;51.734;8.950;2023-06-24T07:27:47;98837.44;;;21.57;71.94
27712;BME280;2377;51.734;8.950;2023-06-24T07:30:14;98834.56;;;21.68;71.24
27712;BME280;2377;51.734;8.950;2023-06-24T07:32:41;98834.56;;;21.79;68.19
27712;BME280;2377;51.734;8.950;2023-06-24T07:35:09;98837.44;;;21.87;68.10
27712;BME280;2377;51.734;8.950;2023-06-24T07:37:36;98840.28;;;22.01;67.32
27712;BME280;2377;51.734;8.950;2023-06-24T07:40:06;98837.94;;;22.15;68.84
27712;BME280;2377;51.734;8.950;2023-06-24T07:42:35;98841.88;;;22.28;68.61
27712;BME280;2377;51.734;8.950;2023-06-24T07:45:04;98837.13;;;22.45;67.73
27712;BME280;2377;51.734;8.950;2023-06-24T07:47:31;98840.78;;;22.49;65.42
27712;BME280;2377;51.734;8.950;2023-06-24T07:49:58;98840.75;;;22.59;66.27
27712;BME280;2377;51.734;8.950;2023-06-24T07:52:26;98837.84;;;22.66;63.96
27712;BME280;2377;51.734;8.950;2023-06-24T07:54:53;98836.50;;;22.84;65.45
27712;BME280;2377;51.734;8.950;2023-06-24T07:57:20;98835.94;;;23.03;65.44
27712;BME280;2377;51.734;8.950;2023-06-24T07:59:47;98835.63;;;23.14;64.80
27712;BME280;2377;51.734;8.950;2023-06-24T08:02:15;98841.56;;;23.20;64.74
27712;BME280;2377;51.734;8.950;2023-06-24T08:04:43;98837.06;;;23.36;63.09
27712;BME280;2377;51.734;8.950;2023-06-24T08:07:10;98841.38;;;23.51;62.68
27712;BME280;2377;51.734;8.950;2023-06-24T08:09:37;98835.31;;;23.60;60.88
27712;BME280;2377;51.734;8.950;2023-06-24T08:12:05;98829.88;;;23.57;60.66
27712;BME280;2377;51.734;8.950;2023-06-24T08:14:32;98841.25;;;23.71;62.02
27712;BME280;2377;51.734;8.950;2023-06-24T08:16:59;98845.69;;;23.76;60.49
27712;BME280;2377;51.734;8.950;2023-06-24T08:19:28;98833.09;;;23.83;58.20
27712;BME280;2377;51.734;8.950;2023-06-24T08:21:55;98835.41;;;23.90;58.30
27712;BME280;2377;51.734;8.950;2023-06-24T08:24:22;98838.19;;;23.98;59.88
27712;BME280;2377;51.734;8.950;2023-06-24T08:26:49;98841.81;;;24.02;59.39
27712;BME280;2377;51.734;8.950;2023-06-24T08:29:16;98838.25;;;24.17;59.85
27712;BME280;2377;51.734;8.950;2023-06-24T08:31:43;98839.16;;;24.32;59.00
27712;BME280;2377;51.734;8.950;2023-06-24T08:34:10;98838.78;;;24.43;59.21
27712;BME280;2377;51.734;8.950;2023-06-24T08:36:39;98847.44;;;24.44;58.32
27712;BME280;2377;51.734;8.950;2023-06-24T08:39:07;98840.34;;;24.50;56.02
27712;BME280;2377;51.734;8.950;2023-06-24T08:41:34;98849.50;;;24.47;54.73
27712;BME280;2377;51.734;8.950;2023-06-24T08:44:01;98848.97;;;24.45;55.79
27712;BME280;2377;51.734;8.950;2023-06-24T08:46:29;98843.19;;;24.53;55.96
27712;BME280;2377;51.734;8.950;2023-06-24T08:49:06;98848.03;;;24.65;58.04
27712;BME280;2377;51.734;8.950;2023-06-24T08:51:43;98845.00;;;24.77;55.24
27712;BME280;2377;51.734;8.950;2023-06-24T08:54:15;98846.22;;;24.84;55.47
27712;BME280;2377;51.734;8.950;2023-06-24T08:56:42;98846.91;;;24.90;55.78
27712;BME280;2377;51.734;8.950;2023-06-24T08:59:09;98849.78;;;24.94;56.15
27712;BME280;2377;51.734;8.950;2023-06-24T09:01:37;98845.75;;;25.01;57.52
27712;BME280;2377;51.734;8.950;2023-06-24T09:04:04;98840.78;;;25.00;55.28
27712;BME280;2377;51.734;8.950;2023-06-24T09:06:32;98839.41;;;25.07;55.57
27712;BME280;2377;51.734;8.950;2023-06-24T09:09:00;98846.09;;;25.19;54.48
27712;BME280;2377;51.734;8.950;2023-06-24T09:11:28;98848.91;;;25.22;54.36
27712;BME280;2377;51.734;8.950;2023-06-24T09:13:58;98847.63;;;25.20;52.28
27712;BME280;2377;51.734;8.950;2023-06-24T09:16:26;98842.97;;;25.11;52.70
27712;BME280;2377;51.734;8.950;2023-06-24T09:18:53;98838.81;;;25.10;51.82
27712;BME280;2377;51.734;8.950;2023-06-24T09:21:24;98832.88;;;25.05;52.09
27712;BME280;2377;51.734;8.950;2023-06-24T09:23:56;98824.94;;;24.91;51.99
27712;BME280;2377;51.734;8.950;2023-06-24T09:26:26;98834.91;;;24.89;52.25
27712;BME280;2377;51.734;8.950;2023-06-24T09:28:58;98834.84;;;24.94;53.40
27712;BME280;2377;51.734;8.950;2023-06-24T09:31:25;98835.28;;;25.01;52.50
27712;BME280;2377;51.734;8.950;2023-06-24T09:33:57;98835.44;;;25.10;51.09
27712;BME280;2377;51.734;8.950;2023-06-24T09:36:25;98831.94;;;25.20;50.55
27712;BME280;2377;51.734;8.950;2023-06-24T09:38:52;98829.59;;;25.18;51.54
27712;BME280;2377;51.734;8.950;2023-06-24T09:41:27;98830.72;;;25.31;53.02
27712;BME280;2377;51.734;8.950;2023-06-24T09:43:58;98825.75;;;25.48;52.61
27712;BME280;2377;51.734;8.950;2023-06-24T09:46:27;98833.03;;;25.51;49.70
27712;BME280;2377;51.734;8.950;2023-06-24T09:48:56;98822.19;;;25.58;51.37
27712;BME280;2377;51.734;8.950;2023-06-24T09:51:24;98826.44;;;25.73;51.75
27712;BME280;2377;51.734;8.950;2023-06-24T09:53:53;98823.31;;;25.90;50.50
27712;BME280;2377;51.734;8.950;2023-06-24T09:56:23;98826.75;;;25.85;50.28
27712;BME280;2377;51.734;8.950;2023-06-24T09:58:52;98817.84;;;25.86;51.38
27712;BME280;2377;51.734;8.950;2023-06-24T10:01:20;98821.34;;;25.96;50.80
27712;BME280;2377;51.734;8.950;2023-06-24T10:03:48;98812.91;;;25.99;50.99
27712;BME280;2377;51.734;8.950;2023-06-24T10:06:16;98816.50;;;26.03;51.29
27712;BME280;2377;51.734;8.950;2023-06-24T10:08:43;98809.91;;;26.05;50.12
27712;BME280;2377;51.734;8.950;2023-06-24T10:11:10;98810.28;;;25.99;50.99
27712;BME280;2377;51.734;8.950;2023-06-24T10:13:38;98810.22;;;26.04;51.25
27712;BME280;2377;51.734;8.950;2023-06-24T10:16:06;98807.41;;;26.14;50.86
27712;BME280;2377;51.734;8.950;2023-06-24T10:18:35;98803.91;;;26.19;51.98
27712;BME280;2377;51.734;8.950;2023-06-24T10:21:04;98806.44;;;26.38;52.46
27712;BME280;2377;51.734;8.950;2023-06-24T10:23:40;98794.50;;;26.45;52.33
27712;BME280;2377;51.734;8.950;2023-06-24T10:26:26;98799.75;;;26.59;51.06
27712;BME280;2377;51.734;8.950;2023-06-24T10:29:12;98787.53;;;26.54;50.34
27712;BME280;2377;51.734;8.950;2023-06-24T10:31:54;98791.91;;;26.59;51.94
27712;BME280;2377;51.734;8.950;2023-06-24T10:34:41;98796.34;;;26.72;50.25
27712;BME280;2377;51.734;8.950;2023-06-24T10:37:13;98794.31;;;26.69;50.99
27712;BME280;2377;51.734;8.950;2023-06-24T10:39:49;98799.06;;;26.81;51.06
27712;BME280;2377;51.734;8.950;2023-06-24T10:45:18;98788.56;;;26.81;48.58
27712;BME280;2377;51.734;8.950;2023-06-24T10:47:48;98775.91;;;26.83;49.88
27712;BME280;2377;51.734;8.950;2023-06-24T10:50:19;98780.63;;;26.95;47.63
27712;BME280;2377;51.734;8.950;2023-06-24T10:52:48;98774.34;;;26.96;48.77
27712;BME280;2377;51.734;8.950;2023-06-24T10:55:17;98779.09;;;26.94;48.13
27712;BME280;2377;51.734;8.950;2023-06-24T10:57:45;98780.75;;;26.90;47.88
27712;BME280;2377;51.734;8.950;2023-06-24T11:00:14;98770.50;;;26.80;48.64
27712;BME280;2377;51.734;8.950;2023-06-24T11:02:42;98764.88;;;26.72;49.56
27712;BME280;2377;51.734;8.950;2023-06-24T11:05:12;98769.31;;;26.86;50.53
27712;BME280;2377;51.734;8.950;2023-06-24T11:07:39;98768.13;;;26.92;47.90
27712;BME280;2377;51.734;8.950;2023-06-24T11:10:10;98759.41;;;26.83;48.13
27712;BME280;2377;51.734;8.950;2023-06-24T11:12:39;98762.50;;;26.85;51.18
27712;BME280;2377;51.734;8.950;2023-06-24T11:15:08;98761.38;;;26.99;50.99
27712;BME280;2377;51.734;8.950;2023-06-24T11:17:37;98763.97;;;27.13;48.73
27712;BME280;2377;51.734;8.950;2023-06-24T11:20:09;98754.41;;;27.17;49.13
27712;BME280;2377;51.734;8.950;2023-06-24T11:22:39;98759.03;;;27.12;49.14
27712;BME280;2377;51.734;8.950;2023-06-24T11:25:14;98754.47;;;27.04;49.78
27712;BME280;2377;51.734;8.950;2023-06-24T11:27:41;98755.97;;;26.96;48.51
27712;BME280;2377;51.734;8.950;2023-06-24T11:30:10;98763.28;;;26.85;47.67
27712;BME280;2377;51.734;8.950;2023-06-24T11:32:39;98755.19;;;26.95;49.37
27712;BME280;2377;51.734;8.950;2023-06-24T11:35:09;98756.69;;;27.10;49.66
27712;BME280;2377;51.734;8.950;2023-06-24T11:37:41;98752.78;;;27.22;49.38
27712;BME280;2377;51.734;8.950;2023-06-24T11:40:09;98763.69;;;27.37;48.61
27712;BME280;2377;51.734;8.950;2023-06-24T11:42:38;98756.00;;;27.41;48.65
27712;BME280;2377;51.734;8.950;2023-06-24T11:45:08;98753.06;;;27.20;46.22
27712;BME280;2377;51.734;8.950;2023-06-24T11:50:06;98743.81;;;27.23;50.29
27712;BME280;2377;51.734;8.950;2023-06-24T11:52:41;98742.50;;;27.34;51.21
27712;BME280;2377;51.734;8.950;2023-06-24T11:55:16;98742.66;;;27.37;46.76
27712;BME280;2377;51.734;8.950;2023-06-24T11:57:56;98735.41;;;27.34;48.28
27712;BME280;2377;51.734;8.950;2023-06-24T12:00:25;98739.59;;;27.35;46.85
27712;BME280;2377;51.734;8.950;2023-06-24T12:02:55;98730.81;;;27.40;48.36
27712;BME280;2377;51.734;8.950;2023-06-24T12:05:27;98727.72;;;27.38;47.76
27712;BME280;2377;51.734;8.950;2023-06-24T12:07:58;98721.59;;;27.51;47.85
27712;BME280;2377;51.734;8.950;2023-06-24T12:10:27;98719.66;;;27.66;49.18
27712;BME280;2377;51.734;8.950;2023-06-24T12:12:56;98721.38;;;27.70;47.68
27712;BME280;2377;51.734;8.950;2023-06-24T12:15:23;98718.72;;;27.61;48.08
27712;BME280;2377;51.734;8.950;2023-06-24T12:17:50;98713.84;;;27.46;47.49
27712;BME280;2377;51.734;8.950;2023-06-24T12:20:17;98720.47;;;27.44;47.34
27712;BME280;2377;51.734;8.950;2023-06-24T12:22:45;98710.72;;;27.35;46.89
27712;BME280;2377;51.734;8.950;2023-06-24T12:25:14;98717.56;;;27.45;47.94
27712;BME280;2377;51.734;8.950;2023-06-24T12:27:42;98710.63;;;27.49;47.80
27712;BME280;2377;51.734;8.950;2023-06-24T12:30:11;98715.00;;;27.62;48.25
27712;BME280;2377;51.734;8.950;2023-06-24T12:32:38;98707.66;;;27.73;45.71
27712;BME280;2377;51.734;8.950;2023-06-24T12:35:07;98706.25;;;27.76;45.78
27712;BME280;2377;51.734;8.950;2023-06-24T12:37:35;98703.28;;;27.69;45.94
27712;BME280;2377;51.734;8.950;2023-06-24T12:40:04;98708.88;;;27.76;44.53
27712;BME280;2377;51.734;8.950;2023-06-24T12:42:36;98702.13;;;27.83;46.63
27712;BME280;2377;51.734;8.950;2023-06-24T12:45:04;98701.09;;;27.93;46.56
27712;BME280;2377;51.734;8.950;2023-06-24T12:47:32;98703.84;;;27.88;45.22
27712;BME280;2377;51.734;8.950;2023-06-24T12:49:59;98701.41;;;28.00;46.40
27712;BME280;2377;51.734;8.950;2023-06-24T12:52:26;98694.66;;;28.08;45.50
27712;BME280;2377;51.734;8.950;2023-06-24T12:54:53;98690.63;;;28.11;45.65
27712;BME280;2377;51.734;8.950;2023-06-24T12:57:20;98697.06;;;27.96;44.65
27712;BME280;2377;51.734;8.950;2023-06-24T12:59:49;98697.25;;;27.99;45.46
27712;BME280;2377;51.734;8.950;2023-06-24T13:02:16;98694.19;;;28.15;45.97
27712;BME280;2377;51.734;8.950;2023-06-24T13:04:43;98689.84;;;28.19;46.48
27712;BME280;2377;51.734;8.950;2023-06-24T13:07:10;98701.16;;;28.28;45.83
27712;BME280;2377;51.734;8.950;2023-06-24T13:09:37;98696.53;;;28.42;45.74
27712;BME280;2377;51.734;8.950;2023-06-24T13:12:05;98701.66;;;28.39;45.05
27712;BME280;2377;51.734;8.950;2023-06-24T13:14:33;98689.84;;;28.19;42.03
27712;BME280;2377;51.734;8.950;2023-06-24T13:17:02;98698.47;;;28.02;41.85
27712;BME280;2377;51.734;8.950;2023-06-24T13:19:30;98689.69;;;28.07;41.82
27712;BME280;2377;51.734;8.950;2023-06-24T13:21:58;98689.34;;;27.99;40.68
27712;BME280;2377;51.734;8.950;2023-06-24T13:24:25;98695.81;;;27.93;41.30
27712;BME280;2377;51.734;8.950;2023-06-24T13:26:52;98697.06;;;27.87;42.48